Time;durP1;ratioP1;P1;durP2;ratioP2;P2;SDS_P1;SDS_P2;PMS_P1;PMS_P2;Temp;Humidity;BMP_temperature;BMP_pressure;BME280_temperature;BME280_humidity;BME280_pressure;Samples;Min_cycle;Max_cycle;Signal;HPM_P1;HPM_P2
2023/06/08 00:00:08;;;;;;;7.53;3.77;;;;;;;16.33;69.56;97130.38;5047258;28;20206;-74
2023/06/08 00:02:39;;;;;;;7.63;4.20;;;;;;;16.25;69.97;97122.19;5047039;28;20299;-74
2023/06/08 00:05:12;;;;;;;5.57;3.77;;;;;;;15.76;71.66;97119.38;5046800;28;20233;-74
2023/06/08 00:07:41;;;;;;;4.70;3.30;;;;;;;15.52;72.73;97110.50;5047222;28;20229;-73
2023/06/08 00:10:09;;;;;;;6.60;3.50;;;;;;;15.58;72.37;97104.88;5046707;28;20293;-73
2023/06/08 00:12:37;;;;;;;4.63;3.63;;;;;;;15.65;72.54;97116.63;5047092;28;20627;-73
2023/06/08 00:15:06;;;;;;;4.97;3.27;;;;;;;15.93;71.70;97118.28;5046581;28;20202;-73
2023/06/08 00:17:34;;;;;;;4.97;3.27;;;;;;;16.00;70.99;97106.47;5046896;28;20606;-72
2023/06/08 00:20:06;;;;;;;4.50;3.00;;;;;;;16.05;70.88;97114.88;5046740;28;20661;-72
2023/06/08 00:22:36;;;;;;;3.50;2.97;;;;;;;16.00;70.50;97103.88;5046631;28;20205;-72
2023/06/08 00:25:05;;;;;;;3.33;2.97;;;;;;;15.56;72.24;97101.53;5046848;28;20240;-73
2023/06/08 00:27:32;;;;;;;3.70;3.10;;;;;;;15.55;72.30;97101.66;5046277;28;20233;-74
2023/06/08 00:29:59;;;;;;;4.93;2.90;;;;;;;15.86;71.08;97115.25;5046910;28;20201;-75
2023/06/08 00:32:26;;;;;;;3.53;2.93;;;;;;;15.84;71.27;97111.03;5046905;28;20197;-74
2023/06/08 00:34:53;;;;;;;3.20;2.73;;;;;;;15.86;70.53;97072.59;5045372;28;20234;-74
2023/06/08 00:37:22;;;;;;;5.20;3.10;;;;;;;15.47;71.77;97081.28;5046490;28;20321;-75
2023/06/08 00:39:49;;;;;;;4.50;3.40;;;;;;;15.12;72.83;97086.09;5046345;28;20220;-73
2023/06/08 00:42:16;;;;;;;5.60;3.20;;;;;;;14.69;75.01;97074.06;5025461;28;20210;-73
2023/06/08 00:44:43;;;;;;;4.27;3.80;;;;;;;14.40;76.89;97091.47;5026085;28;20217;-73
2023/06/08 00:47:11;;;;;;;6.90;3.80;;;;;;;14.57;76.46;97088.66;5026718;28;20659;-74
2023/06/08 00:49:38;;;;;;;6.70;3.90;;;;;;;14.42;77.43;97083.53;5026617;28;20637;-73
2023/06/08 00:52:07;;;;;;;5.17;3.43;;;;;;;14.65;76.71;97068.16;5025252;28;20666;-73
2023/06/08 00:54:39;;;;;;;7.43;3.53;;;;;;;14.65;77.37;97088.22;5026297;28;20570;-73
2023/06/08 00:57:08;;;;;;;6.63;3.73;;;;;;;14.75;76.77;97072.81;5026301;28;20932;-73
2023/06/08 00:59:36;;;;;;;8.40;4.33;;;;;;;14.82;76.28;97081.97;5029339;28;20222;-73
2023/06/08 01:02:06;;;;;;;5.03;3.60;;;;;;;14.96;76.09;97071.50;5030265;28;20222;-73
2023/06/08 01:04:35;;;;;;;6.33;3.80;;;;;;;15.02;75.73;97069.31;5030527;28;20198;-72
2023/06/08 01:07:14;;;;;;;5.70;3.77;;;;;;;15.13;75.20;97074.72;5030256;28;20260;-73
2023/06/08 01:10:14;;;;;;;5.07;3.83;;;;;;;15.14;74.80;97067.72;5030024;28;20219;-73
2023/06/08 01:12:41;;;;;;;4.80;3.63;;;;;;;15.34;74.82;97059.47;5029327;28;20227;-73
2023/06/08 01:15:33;;;;;;;6.80;3.83;;;;;;;15.42;74.12;97062.41;5029796;28;20199;-74
2023/06/08 01:18:09;;;;;;;5.63;3.73;;;;;;;15.46;73.88;97067.38;5030102;28;20195;-73
2023/06/08 01:20:41;;;;;;;5.60;4.00;;;;;;;15.44;73.40;97052.75;5029763;28;20198;-73
2023/06/08 01:23:34;;;;;;;4.77;3.43;;;;;;;15.35;74.55;97063.75;5029898;28;20203;-73
2023/06/08 01:26:03;;;;;;;8.77;3.43;;;;;;;15.21;75.24;97063.78;5029141;28;20220;-73
2023/06/08 01:28:31;;;;;;;5.73;3.97;;;;;;;15.31;74.50;97067.50;5028706;28;20226;-74
2023/06/08 01:31:02;;;;;;;5.50;4.23;;;;;;;15.23;74.57;97067.97;5029837;28;20681;-74
2023/06/08 01:33:31;;;;;;;6.97;3.57;;;;;;;15.34;74.78;97062.06;5029721;28;20207;-74
2023/06/08 01:36:01;;;;;;;7.30;4.10;;;;;;;15.40;74.07;97065.13;5029806;28;20191;-74
2023/06/08 01:38:43;;;;;;;6.67;4.13;;;;;;;15.37;74.34;97064.50;5028614;28;20197;-74
2023/06/08 01:41:17;;;;;;;5.87;4.10;;;;;;;15.51;74.22;97066.25;5028195;28;20206;-74
2023/06/08 01:43:49;;;;;;;5.07;3.50;;;;;;;15.48;73.74;97065.50;5029765;28;20638;-73
2023/06/08 01:46:18;;;;;;;8.63;3.67;;;;;;;15.22;74.77;97065.47;5029759;28;20253;-73
2023/06/08 01:48:48;;;;;;;6.80;3.63;;;;;;;14.65;76.32;97055.13;5028302;28;20676;-73
2023/06/08 01:51:17;;;;;;;8.43;3.57;;;;;;;14.57;77.05;97059.97;5029618;28;20709;-73
2023/06/08 01:53:44;;;;;;;7.97;3.73;;;;;;;14.25;77.99;97050.66;5029321;28;20195;-73
2023/06/08 01:56:11;;;;;;;5.73;3.93;;;;;;;14.13;78.79;97056.59;5030136;28;20191;-73
2023/06/08 01:58:39;;;;;;;6.10;4.13;;;;;;;13.89;81.18;97058.03;5028497;28;20225;-71
2023/06/08 02:01:06;;;;;;;5.23;3.87;;;;;;;13.96;80.98;97054.16;5028193;28;20301;-71
2023/06/08 02:03:33;;;;;;;5.43;3.90;;;;;;;13.74;81.14;97014.69;5029191;28;20237;-71
2023/06/08 02:06:00;;;;;;;7.93;4.27;;;;;;;14.11;80.87;97053.25;5029025;28;20190;-71
2023/06/08 02:08:30;;;;;;;5.97;4.13;;;;;;;13.85;82.11;97057.38;5046101;28;20228;-71
2023/06/08 02:10:57;;;;;;;5.93;4.27;;;;;;;13.77;82.69;97040.53;5048228;28;20209;-72
2023/06/08 02:13:24;;;;;;;7.17;4.07;;;;;;;13.84;82.61;97050.50;5049277;28;20795;-72
2023/06/08 02:15:52;;;;;;;5.00;4.20;;;;;;;13.98;82.09;97057.50;5047367;28;20193;-72
2023/06/08 02:18:19;;;;;;;6.83;4.60;;;;;;;14.05;80.97;97043.19;5049169;28;20238;-72
2023/06/08 02:20:46;;;;;;;6.60;4.37;;;;;;;14.20;80.19;97046.66;5047534;28;20198;-72
2023/06/08 02:23:13;;;;;;;4.93;4.43;;;;;;;14.24;79.81;97042.94;5048645;28;20198;-73
2023/06/08 02:25:40;;;;;;;6.60;4.40;;;;;;;14.22;79.37;97050.00;5048537;28;20201;-73
2023/06/08 02:28:08;;;;;;;5.63;4.40;;;;;;;14.12;79.84;97036.69;5048352;28;20233;-72
2023/06/08 02:30:35;;;;;;;6.70;5.00;;;;;;;14.35;79.55;97041.38;5048892;28;20210;-72
2023/06/08 02:33:03;;;;;;;6.50;4.80;;;;;;;14.40;78.44;97048.94;5048452;28;20190;-72
2023/06/08 02:35:30;;;;;;;6.43;4.53;;;;;;;14.50;78.29;97024.81;5048592;28;20296;-72
2023/06/08 02:37:58;;;;;;;6.03;4.07;;;;;;;14.51;78.54;97054.31;5047203;28;20307;-72
2023/06/08 02:40:25;;;;;;;4.93;4.13;;;;;;;14.35;79.11;97053.56;5047242;28;20205;-72
2023/06/08 02:42:52;;;;;;;5.90;4.10;;;;;;;14.36;79.10;97053.47;5047439;28;20200;-72
2023/06/08 02:45:22;;;;;;;5.43;4.30;;;;;;;14.47;78.52;97056.28;5046989;28;20192;-72
2023/06/08 02:47:50;;;;;;;5.93;4.77;;;;;;;14.52;77.99;97043.81;5041189;28;20210;-73
2023/06/08 02:50:17;;;;;;;7.07;4.90;;;;;;;14.79;76.81;97061.28;5028305;28;20781;-73
2023/06/08 02:52:44;;;;;;;5.07;4.33;;;;;;;14.82;76.11;97056.69;5027426;28;20191;-73
2023/06/08 02:55:11;;;;;;;5.90;4.57;;;;;;;14.66;76.71;97059.44;5043552;28;20197;-72
2023/06/08 02:57:38;;;;;;;10.87;4.43;;;;;;;14.64;76.60;97070.88;5027360;28;20203;-73
2023/06/08 03:00:15;;;;;;;5.73;4.50;;;;;;;14.70;76.72;97065.28;5026939;28;20191;-72
2023/06/08 03:03:03;;;;;;;6.97;4.63;;;;;;;14.86;76.04;97075.63;5027036;28;20207;-73
2023/06/08 03:05:34;;;;;;;7.23;4.40;;;;;;;14.82;75.82;97068.94;5027292;28;20198;-72
2023/06/08 03:08:02;;;;;;;8.00;4.30;;;;;;;14.59;77.17;97076.38;5027945;28;20296;-72
2023/06/08 03:10:30;;;;;;;7.47;4.63;;;;;;;14.87;76.48;97074.66;5043459;28;20284;-71
2023/06/08 03:12:57;;;;;;;4.93;4.03;;;;;;;14.26;76.11;96987.19;5026689;28;20233;-72
2023/06/08 03:15:27;;;;;;;7.60;4.50;;;;;;;15.01;75.67;97075.50;5024979;28;20199;-73
2023/06/08 03:17:58;;;;;;;7.53;4.43;;;;;;;14.83;74.93;97044.50;5026370;28;20221;-73
2023/06/08 03:20:26;;;;;;;5.50;4.40;;;;;;;15.23;74.82;97082.78;5026363;28;20199;-72
2023/06/08 03:23:00;;;;;;;7.23;4.13;;;;;;;15.36;74.45;97081.06;5025940;28;20313;-73
2023/06/08 03:25:29;;;;;;;6.67;4.03;;;;;;;15.51;73.58;97082.75;5026439;28;20761;-72
2023/06/08 03:27:57;;;;;;;7.50;4.40;;;;;;;15.36;74.16;97081.06;5026424;28;20683;-71
2023/06/08 03:30:25;;;;;;;6.70;4.57;;;;;;;15.37;73.88;97082.75;5024774;28;20250;-73
2023/06/08 03:32:55;;;;;;;7.33;5.30;;;;;;;15.52;73.91;97078.38;5018349;28;20202;-74
2023/06/08 03:35:36;;;;;;;9.97;4.40;;;;;;;15.46;73.77;97074.34;5016296;28;20202;-73
2023/06/08 03:38:21;;;;;;;8.33;4.43;;;;;;;15.37;74.45;97083.59;5022158;28;20274;-73
2023/06/08 03:40:50;;;;;;;5.03;3.93;;;;;;;15.40;74.19;97066.91;5020651;28;20586;-76
2023/06/08 03:43:20;;;;;;;4.87;3.97;;;;;;;15.16;75.01;97076.28;5016760;28;20201;-76
2023/06/08 03:46:28;;;;;;;8.73;4.30;;;;;;;15.44;74.22;97090.13;5023362;28;20205;-73
2023/06/08 03:49:49;;;;;;;7.07;4.67;;;;;;;16.05;71.67;97092.16;5027541;28;20225;-73
2023/06/08 03:52:30;;;;;;;6.40;4.93;;;;;;;16.43;70.15;97107.03;5026437;28;20194;-74
2023/06/08 03:54:58;;;;;;;6.20;4.20;;;;;;;16.42;70.57;97102.78;5035604;28;20202;-73
2023/06/08 03:57:25;;;;;;;4.40;3.63;;;;;;;16.13;69.93;97078.59;5025685;28;20206;-73
2023/06/08 03:59:53;;;;;;;7.30;4.17;;;;;;;16.26;70.49;97102.97;5034515;28;20665;-73
2023/06/08 04:02:20;;;;;;;8.03;4.27;;;;;;;16.01;71.44;97106.38;5027222;28;20207;-72
2023/06/08 04:04:48;;;;;;;5.70;4.17;;;;;;;15.90;71.40;97092.34;5025642;28;20268;-74
2023/06/08 04:07:16;;;;;;;4.73;3.90;;;;;;;16.15;71.54;97108.09;5023329;28;20265;-74
2023/06/08 04:09:44;;;;;;;7.40;4.57;;;;;;;16.35;70.40;97111.97;5001250;28;20248;-71
2023/06/08 04:12:11;;;;;;;9.50;4.10;;;;;;;16.77;69.15;97101.22;5017263;28;20229;-72
2023/06/08 04:14:38;;;;;;;12.13;4.17;;;;;;;16.52;69.57;97106.47;5016147;28;20244;-73
2023/06/08 04:17:07;;;;;;;7.17;4.27;;;;;;;16.88;68.80;97117.00;5013847;28;20749;-75
2023/06/08 04:19:35;;;;;;;6.33;3.87;;;;;;;17.22;67.88;97118.94;4998071;28;20183;-73
2023/06/08 04:22:04;;;;;;;12.53;4.93;;;;;;;17.91;66.10;97105.16;5022486;28;20249;-73
2023/06/08 04:24:36;;;;;;;6.70;3.93;;;;;;;18.48;64.15;97118.38;5025134;28;20209;-71
2023/06/08 04:27:05;;;;;;;6.00;3.80;;;;;;;18.38;63.52;97083.28;5008688;28;20198;-74
2023/06/08 04:29:32;;;;;;;8.03;4.00;;;;;;;18.96;62.27;97122.44;5025262;28;20235;-73
2023/06/08 04:31:59;;;;;;;9.07;4.33;;;;;;;19.54;60.59;97120.53;5025854;28;20203;-75
2023/06/08 04:34:27;;;;;;;6.10;3.20;;;;;;;19.34;60.10;97116.84;5026523;28;20197;-73
2023/06/08 04:36:54;;;;;;;5.93;4.00;;;;;;;19.58;60.23;97128.00;5025346;28;20230;-72
2023/06/08 04:39:22;;;;;;;4.77;3.23;;;;;;;19.90;59.09;97125.44;5025016;28;20288;-73
2023/06/08 04:41:49;;;;;;;6.13;4.43;;;;;;;19.44;59.63;97123.88;5025142;28;20302;-72
2023/06/08 04:44:20;;;;;;;7.27;3.70;;;;;;;19.29;60.31;97125.06;5024810;28;20214;-71
2023/06/08 04:46:56;;;;;;;7.93;3.73;;;;;;;19.35;59.98;97119.34;5025080;28;20602;-71
2023/06/08 04:49:30;;;;;;;7.00;4.57;;;;;;;19.40;60.15;97126.88;5024575;28;20225;-72
2023/06/08 04:51:58;;;;;;;10.53;5.50;;;;;;;19.45;60.86;97122.09;5024876;28;20291;-73
2023/06/08 04:54:29;;;;;;;15.73;4.87;;;;;;;19.88;60.74;97128.19;5026009;28;20252;-72
2023/06/08 04:57:00;;;;;;;7.07;3.83;;;;;;;20.50;57.48;97116.91;5009248;28;20626;-76
2023/06/08 04:59:28;;;;;;;4.93;3.23;;;;;;;20.14;57.59;97118.16;5024914;28;20225;-74
2023/06/08 05:01:55;;;;;;;4.60;3.43;;;;;;;20.18;57.34;97120.41;5026223;28;20698;-77
2023/06/08 05:04:22;;;;;;;3.50;3.20;;;;;;;20.04;57.41;97112.81;5025785;28;20206;-75
2023/06/08 05:06:49;;;;;;;6.70;3.47;;;;;;;19.86;58.51;97095.94;5026291;28;20233;-74
2023/06/08 05:09:16;;;;;;;3.67;2.77;;;;;;;20.36;57.82;97118.06;5025869;28;20222;-74
2023/06/08 05:11:43;;;;;;;4.73;3.03;;;;;;;20.27;57.42;97110.94;5026265;28;20684;-73
2023/06/08 05:14:10;;;;;;;5.97;3.37;;;;;;;20.43;56.90;97108.69;5026058;28;20685;-74
2023/06/08 05:16:37;;;;;;;6.93;4.37;;;;;;;20.70;56.17;97114.28;5025621;28;20253;-73
2023/06/08 05:19:07;;;;;;;6.60;3.63;;;;;;;20.47;58.20;97094.31;5025513;28;20202;-75
2023/06/08 05:21:39;;;;;;;5.87;3.70;;;;;;;20.57;56.54;97118.06;5030048;28;20689;-75
2023/06/08 05:24:07;;;;;;;5.67;3.83;;;;;;;20.57;57.00;97116.25;5031458;28;20206;-75
2023/06/08 05:26:34;;;;;;;7.33;3.90;;;;;;;20.76;57.17;97113.75;5025579;28;20206;-74
2023/06/08 05:29:02;;;;;;;6.43;3.60;;;;;;;21.17;56.39;97119.91;5026001;28;20238;-75
2023/06/08 05:31:29;;;;;;;6.20;3.23;;;;;;;20.93;55.34;97109.66;5025733;28;20290;-75
2023/06/08 05:33:56;;;;;;;4.80;3.80;;;;;;;21.03;55.12;97119.31;5025747;28;20732;-73
2023/06/08 05:36:23;;;;;;;6.13;3.70;;;;;;;21.23;54.45;97124.63;5025430;28;20278;-73
2023/06/08 05:38:50;;;;;;;4.57;3.83;;;;;;;21.40;54.31;97127.47;5025642;28;20553;-74
2023/06/08 05:41:18;;;;;;;5.53;3.43;;;;;;;21.62;53.79;97126.41;5025934;28;20279;-74
2023/06/08 05:43:45;;;;;;;6.13;3.53;;;;;;;21.74;53.81;97120.06;5025397;28;20265;-74
2023/06/08 05:46:14;;;;;;;4.47;3.30;;;;;;;21.69;53.19;97120.47;5027128;28;20196;-71
2023/06/08 05:48:41;;;;;;;4.37;3.47;;;;;;;21.31;53.29;97117.75;5048447;28;20235;-72
2023/06/08 05:51:08;;;;;;;5.43;3.70;;;;;;;21.50;53.27;97124.88;5049270;28;20622;-73
2023/06/08 05:53:37;;;;;;;6.80;3.70;;;;;;;21.57;52.98;97120.72;5048933;28;20564;-72
2023/06/08 05:56:04;;;;;;;5.50;3.53;;;;;;;21.58;54.39;97131.13;5049228;28;20272;-72
2023/06/08 05:58:31;;;;;;;7.73;5.40;;;;;;;21.74;53.17;97122.72;5047595;28;20203;-71
2023/06/08 06:01:15;;;;;;;8.20;3.97;;;;;;;21.99;52.40;97124.81;5046756;28;20203;-74
2023/06/08 06:03:42;;;;;;;5.87;3.50;;;;;;;22.16;52.05;97121.50;5048585;28;20250;-72
2023/06/08 06:06:11;;;;;;;11.00;3.73;;;;;;;22.33;52.65;97130.53;5048436;28;20211;-74
2023/06/08 06:08:38;;;;;;;8.63;4.40;;;;;;;22.55;51.76;97123.13;5048283;28;20730;-71
2023/06/08 06:11:09;;;;;;;11.47;3.83;;;;;;;22.60;51.18;97131.50;5048642;28;20591;-75
2023/06/08 06:13:36;;;;;;;8.23;4.30;;;;;;;22.15;52.22;97127.78;5048264;28;20195;-72
2023/06/08 06:16:03;;;;;;;10.57;4.20;;;;;;;21.93;53.65;97132.47;5048570;28;20224;-74
2023/06/08 06:18:32;;;;;;;7.37;4.73;;;;;;;21.90;54.45;97133.59;5046612;28;20752;-75
2023/06/08 06:20:59;;;;;;;11.93;4.27;;;;;;;21.81;53.66;97121.19;5048389;28;20200;-75
2023/06/08 06:23:26;;;;;;;6.93;3.77;;;;;;;21.77;54.10;97125.06;5047813;28;20586;-75
2023/06/08 06:25:54;;;;;;;9.83;4.10;;;;;;;22.19;52.36;97125.69;5046893;28;20202;-75
2023/06/08 06:28:21;;;;;;;9.63;3.93;;;;;;;22.27;52.37;97110.81;5047927;28;20381;-72
2023/06/08 06:30:48;;;;;;;5.90;4.00;;;;;;;22.55;52.53;97128.41;5047886;28;20298;-75
2023/06/08 06:33:15;;;;;;;6.47;4.23;;;;;;;21.79;53.93;97138.94;5048217;28;20201;-74
2023/06/08 06:35:43;;;;;;;7.87;3.70;;;;;;;21.82;53.15;97123.69;5047779;28;20624;-74
2023/06/08 06:38:10;;;;;;;4.47;3.50;;;;;;;22.03;53.39;97126.22;5047771;28;20713;-72
2023/06/08 06:40:38;;;;;;;6.00;3.40;;;;;;;21.59;53.73;97118.78;5047781;28;20211;-75
2023/06/08 06:43:05;;;;;;;8.67;4.17;;;;;;;21.26;54.31;97104.16;5046638;28;20212;-74
2023/06/08 06:45:40;;;;;;;6.87;3.87;;;;;;;21.49;54.83;97121.41;5046399;28;20198;-73
2023/06/08 06:48:07;;;;;;;6.07;3.67;;;;;;;21.53;53.83;97114.06;5047633;28;20286;-73
2023/06/08 06:50:35;;;;;;;5.47;3.43;;;;;;;21.68;53.45;97078.41;5047989;28;20232;-73
2023/06/08 06:53:02;;;;;;;11.13;4.83;;;;;;;22.06;52.21;97114.56;5046401;28;20207;-74
2023/06/08 06:55:34;;;;;;;6.20;3.80;;;;;;;21.26;55.59;97103.31;5047575;28;20231;-73
2023/06/08 06:58:02;;;;;;;8.67;5.00;;;;;;;21.69;54.48;97103.81;5047625;28;20399;-74
2023/06/08 07:00:32;;;;;;;6.17;3.43;;;;;;;21.28;54.57;97104.00;5047120;28;20205;-73
2023/06/08 07:02:59;;;;;;;6.30;3.20;;;;;;;21.57;53.03;97087.31;5045907;28;20758;-75
2023/06/08 07:05:27;;;;;;;9.17;5.33;;;;;;;22.21;51.79;97092.91;5047346;28;20651;-75
2023/06/08 07:07:54;;;;;;;5.57;3.63;;;;;;;22.24;52.35;97105.81;5046239;28;20291;-74
2023/06/08 07:10:21;;;;;;;15.27;8.17;;;;;;;21.87;52.33;97107.47;5045346;28;20220;-73
2023/06/08 07:12:51;;;;;;;8.27;3.70;;;;;;;21.34;53.49;97092.94;5047224;28;20292;-74
2023/06/08 07:15:18;;;;;;;4.70;2.80;;;;;;;21.33;54.38;97097.34;5046690;28;20203;-74
2023/06/08 07:17:46;;;;;;;4.50;3.20;;;;;;;20.93;53.99;97078.06;5046656;28;20196;-72
2023/06/08 07:20:14;;;;;;;5.23;3.30;;;;;;;21.57;52.03;97086.47;5046739;28;20203;-73
2023/06/08 07:22:42;;;;;;;4.27;2.60;;;;;;;21.50;52.27;97106.41;5046465;28;20246;-74
2023/06/08 07:25:29;;;;;;;5.77;3.50;;;;;;;21.62;52.45;97100.06;5047471;28;20258;-73
2023/06/08 07:28:16;;;;;;;5.13;3.20;;;;;;;21.64;51.78;97079.66;5047127;28;20220;-74
2023/06/08 07:30:43;;;;;;;3.63;2.93;;;;;;;21.81;52.38;97097.44;5046713;28;20309;-73
2023/06/08 07:33:10;;;;;;;8.17;3.60;;;;;;;22.03;52.08;97099.03;5046577;28;20265;-75
2023/06/08 07:35:37;;;;;;;7.40;3.20;;;;;;;22.46;51.06;97097.56;5046365;28;20199;-74
2023/06/08 07:38:44;;;;;;;5.87;3.50;;;;;;;22.92;49.08;97088.88;5045543;28;20653;-74
2023/06/08 07:41:26;;;;;;;6.83;2.80;;;;;;;22.77;48.79;97084.22;5034664;28;20700;-75
2023/06/08 07:43:54;;;;;;;7.77;4.60;;;;;;;23.20;48.39;97087.09;5032726;28;20737;-75
2023/06/08 07:46:22;;;;;;;9.73;3.97;;;;;;;23.37;48.32;97087.16;5044970;28;20295;-75
2023/06/08 07:48:49;;;;;;;4.33;3.23;;;;;;;23.64;47.27;97085.50;5045605;28;20191;-74
2023/06/08 07:51:16;;;;;;;7.70;2.90;;;;;;;23.36;48.89;97068.81;5046899;28;20291;-74
2023/06/08 07:53:44;;;;;;;6.47;2.97;;;;;;;22.60;50.54;97078.72;5046129;28;20290;-74
2023/06/08 07:56:11;;;;;;;3.83;2.80;;;;;;;22.82;49.29;97081.97;5046355;28;20202;-75
2023/06/08 07:59:18;;;;;;;6.20;3.30;;;;;;;22.89;49.31;97083.06;5043875;28;20205;-73
2023/06/08 08:01:58;;;;;;;7.70;3.30;;;;;;;22.77;49.39;97089.50;5045365;28;20269;-73
2023/06/08 08:04:26;;;;;;;5.47;4.07;;;;;;;22.52;49.11;97086.44;5046064;28;20203;-75
2023/06/08 08:06:53;;;;;;;4.07;3.07;;;;;;;22.12;49.27;97090.25;5035293;28;20210;-74
2023/06/08 08:09:20;;;;;;;4.33;2.50;;;;;;;22.75;48.95;97091.44;5024503;28;20229;-72
2023/06/08 08:11:47;;;;;;;4.17;3.10;;;;;;;22.90;47.85;97080.25;5024974;28;20203;-74
2023/06/08 08:14:14;;;;;;;8.13;3.97;;;;;;;23.02;47.91;97088.84;5046178;28;20205;-74
2023/06/08 08:16:41;;;;;;;3.63;3.00;;;;;;;23.10;47.03;97083.66;5045818;28;20318;-74
2023/06/08 08:19:08;;;;;;;6.40;3.43;;;;;;;23.29;45.77;97086.19;5044399;28;20194;-73
2023/06/08 08:21:35;;;;;;;7.93;2.73;;;;;;;23.35;46.67;97083.00;5046219;28;20201;-73
2023/06/08 08:24:03;;;;;;;8.63;3.83;;;;;;;22.88;46.77;97084.00;5045479;28;20195;-76
2023/06/08 08:26:32;;;;;;;5.97;3.60;;;;;;;22.83;46.91;97087.13;5046106;28;20198;-75
2023/06/08 08:28:58;;;;;;;3.40;2.80;;;;;;;23.01;46.57;97092.47;5045131;28;20570;-73
2023/06/08 08:31:25;;;;;;;6.40;3.50;;;;;;;22.89;46.99;97083.91;5045357;28;20202;-73
2023/06/08 08:33:53;;;;;;;3.40;2.57;;;;;;;22.24;48.20;97070.66;5038739;28;20290;-75
2023/06/08 08:36:20;;;;;;;7.33;5.37;;;;;;;22.88;46.52;97082.22;5024105;28;20266;-73
2023/06/08 08:38:47;;;;;;;5.30;3.00;;;;;;;23.00;46.95;97082.88;5045598;28;20213;-72
2023/06/08 08:41:19;;;;;;;8.70;6.47;;;;;;;23.34;46.48;97078.69;5044967;28;20677;-74
2023/06/08 08:44:04;;;;;;;6.17;3.10;;;;;;;23.48;46.46;97059.69;5027855;28;20211;-75
2023/06/08 08:46:38;;;;;;;5.80;4.10;;;;;;;23.84;45.30;97077.25;5045425;28;20627;-73
2023/06/08 08:49:15;;;;;;;6.77;5.20;;;;;;;23.44;45.38;97063.63;5005870;28;20195;-74
2023/06/08 08:51:52;;;;;;;5.27;2.60;;;;;;;23.03;46.43;97067.56;5022509;28;20197;-72
2023/06/08 08:54:31;;;;;;;3.20;2.70;;;;;;;23.33;46.18;97063.81;5045584;28;20278;-72
2023/06/08 08:56:59;;;;;;;4.90;3.03;;;;;;;23.10;46.51;97063.34;5045668;28;20275;-73
2023/06/08 08:59:28;;;;;;;3.73;3.27;;;;;;;22.71;47.31;97043.34;5045323;28;20221;-72
2023/06/08 09:01:56;;;;;;;3.50;2.47;;;;;;;22.54;48.77;97055.50;5045027;28;20287;-74
2023/06/08 09:04:26;;;;;;;6.00;3.40;;;;;;;22.35;48.75;97071.38;5045637;28;20201;-72
2023/06/08 09:06:53;;;;;;;3.73;3.07;;;;;;;22.32;49.33;97063.72;5044545;28;20249;-73
2023/06/08 09:09:23;;;;;;;7.20;3.63;;;;;;;22.29;49.57;97058.75;5045623;28;20703;-75
2023/06/08 09:12:02;;;;;;;5.90;3.03;;;;;;;22.98;48.23;97051.31;5044859;28;20213;-72
2023/06/08 09:14:30;;;;;;;5.40;2.70;;;;;;;23.64;47.61;97051.91;5043752;28;20193;-74
2023/06/08 09:17:01;;;;;;;8.90;2.90;;;;;;;23.64;47.35;97051.91;5045211;28;20203;-73
2023/06/08 09:19:32;;;;;;;4.30;2.70;;;;;;;23.06;48.40;97048.75;5044960;28;20191;-73
2023/06/08 09:21:59;;;;;;;6.33;4.30;;;;;;;23.35;48.21;97048.63;5047854;28;20206;-76
2023/06/08 09:24:28;;;;;;;5.00;3.10;;;;;;;23.43;48.79;97046.91;5048713;28;20194;-73
2023/06/08 09:26:57;;;;;;;6.00;3.63;;;;;;;23.22;49.01;97053.44;5040776;28;20214;-73
2023/06/08 09:29:40;;;;;;;4.53;2.73;;;;;;;23.20;48.41;97026.31;5029365;28;20280;-75
2023/06/08 09:32:12;;;;;;;4.60;3.13;;;;;;;22.87;49.58;97027.75;5027685;28;20261;-73
2023/06/08 09:34:49;;;;;;;6.93;3.37;;;;;;;23.44;49.24;97024.81;5027823;28;20619;-75
2023/06/08 09:37:18;;;;;;;9.27;4.37;;;;;;;23.88;48.86;97038.94;5011000;28;20218;-74
2023/06/08 09:39:46;;;;;;;6.20;3.23;;;;;;;23.68;49.17;97033.97;5029438;28;20281;-74
2023/06/08 09:42:13;;;;;;;4.67;3.03;;;;;;;23.85;48.61;96998.72;5028642;28;20229;-74
2023/06/08 09:44:41;;;;;;;4.37;2.87;;;;;;;23.87;48.63;97033.78;5028496;28;20223;-73
2023/06/08 09:47:27;;;;;;;3.27;2.90;;;;;;;23.96;48.17;97024.94;5028746;28;20205;-72
2023/06/08 09:49:55;;;;;;;5.60;3.13;;;;;;;23.81;48.01;97013.22;5028800;28;20227;-74
2023/06/08 09:52:30;;;;;;;4.00;2.80;;;;;;;23.96;47.98;97009.91;5029083;28;20206;-74
2023/06/08 09:54:57;;;;;;;5.57;3.03;;;;;;;23.75;48.39;97014.69;5028034;28;20236;-73
2023/06/08 09:57:27;;;;;;;4.23;3.37;;;;;;;24.20;48.16;97022.50;5027412;28;20294;-73
2023/06/08 10:00:17;;;;;;;5.13;2.80;;;;;;;24.36;47.68;97003.28;5028749;28;20188;-74
2023/06/08 10:02:57;;;;;;;6.03;3.13;;;;;;;24.12;48.88;97015.34;5028431;28;20236;-73
2023/06/08 10:05:28;;;;;;;5.37;2.80;;;;;;;23.73;49.34;96998.13;5029001;28;20270;-73
2023/06/08 10:07:58;;;;;;;7.43;3.00;;;;;;;23.71;49.42;97013.31;5026716;28;20669;-74
2023/06/08 10:10:31;;;;;;;9.93;4.03;;;;;;;24.18;49.05;97017.38;5028348;28;20227;-73
2023/06/08 10:12:59;;;;;;;5.83;3.23;;;;;;;23.88;50.18;97004.56;5027680;28;20704;-73
2023/06/08 10:15:27;;;;;;;5.03;3.03;;;;;;;24.10;50.41;97006.75;5028096;28;20215;-72
2023/06/08 10:17:55;;;;;;;3.37;2.70;;;;;;;23.71;51.64;96993.97;5027574;28;20200;-74
2023/06/08 10:20:23;;;;;;;8.37;2.70;;;;;;;23.61;51.44;96994.06;5027877;28;20199;-72
2023/06/08 10:22:51;;;;;;;5.07;3.10;;;;;;;23.44;52.69;97003.66;5028494;28;20686;-73
2023/06/08 10:25:19;;;;;;;4.97;3.00;;;;;;;23.87;51.89;96992.28;5027799;28;20204;-72
2023/06/08 10:27:48;;;;;;;3.67;2.87;;;;;;;23.94;51.17;96984.56;5027564;28;20207;-72
2023/06/08 10:30:40;;;;;;;4.83;2.73;;;;;;;24.16;50.72;96989.41;5027662;28;20280;-74
2023/06/08 10:33:18;;;;;;;6.37;2.87;;;;;;;24.24;50.62;96994.75;5027206;28;20283;-73
2023/06/08 10:36:11;;;;;;;5.47;3.20;;;;;;;24.44;50.14;96990.91;5026401;28;20216;-73
2023/06/08 10:38:56;;;;;;;5.77;3.77;;;;;;;24.42;49.93;96992.88;5027367;28;20231;-74
2023/06/08 10:41:42;;;;;;;3.37;2.63;;;;;;;24.18;50.90;96985.63;5026597;28;20206;-74
2023/06/08 10:44:31;;;;;;;3.23;2.93;;;;;;;24.28;50.44;96974.09;5027896;28;20580;-73
2023/06/08 10:47:04;;;;;;;4.83;3.20;;;;;;;24.42;50.17;96963.75;5026359;28;20204;-73
2023/06/08 10:49:33;;;;;;;6.33;3.17;;;;;;;24.96;49.04;96970.47;5027539;28;20271;-74
2023/06/08 10:52:01;;;;;;;8.20;3.37;;;;;;;25.17;48.36;96965.56;5027704;28;20205;-72
2023/06/08 10:54:28;;;;;;;3.47;2.77;;;;;;;25.14;48.71;96957.97;5027651;28;20212;-74
2023/06/08 10:56:58;;;;;;;3.93;3.03;;;;;;;25.22;48.40;96955.31;5027048;28;20201;-74
2023/06/08 10:59:45;;;;;;;6.37;2.97;;;;;;;24.60;48.25;96958.38;5026993;28;20648;-74
2023/06/08 11:02:13;;;;;;;5.83;3.20;;;;;;;24.38;49.08;96959.75;5027882;28;20232;-72
2023/06/08 11:04:40;;;;;;;3.43;3.00;;;;;;;23.99;50.76;96950.53;5025618;28;20551;-72
2023/06/08 11:07:26;;;;;;;3.80;3.20;;;;;;;24.35;49.40;96948.66;5025667;28;20197;-73
2023/06/08 11:09:53;;;;;;;3.13;2.80;;;;;;;24.31;49.94;96942.00;5027153;28;20275;-72
2023/06/08 11:12:20;;;;;;;3.33;3.00;;;;;;;24.54;49.45;96943.97;5027025;28;20225;-73
2023/06/08 11:14:48;;;;;;;4.07;3.10;;;;;;;24.82;47.84;96940.13;5027316;28;20596;-73
2023/06/08 11:17:15;;;;;;;5.17;3.00;;;;;;;24.81;47.34;96925.22;5026999;28;20197;-74
2023/06/08 11:19:43;;;;;;;5.03;4.00;;;;;;;25.20;46.64;96937.91;5026410;28;20217;-74
2023/06/08 11:22:11;;;;;;;3.37;2.90;;;;;;;25.16;46.64;96921.53;5027262;28;20229;-73
2023/06/08 11:24:42;;;;;;;3.90;3.10;;;;;;;24.82;47.57;96937.47;5027095;28;20514;-74
2023/06/08 11:27:16;;;;;;;3.53;2.40;;;;;;;24.86;47.20;96922.09;5027175;28;20635;-75
2023/06/08 11:29:47;;;;;;;4.97;3.10;;;;;;;24.83;48.09;96933.03;5026843;28;20216;-74
2023/06/08 11:32:17;;;;;;;4.43;3.20;;;;;;;25.14;46.42;96928.81;5027392;28;20575;-73
2023/06/08 11:34:45;;;;;;;5.30;3.10;;;;;;;24.81;47.81;96919.09;5027143;28;20204;-74
2023/06/08 11:37:19;;;;;;;6.00;3.00;;;;;;;24.99;47.33;96917.16;5026874;28;20241;-73
2023/06/08 11:39:47;;;;;;;3.77;2.90;;;;;;;24.79;47.55;96921.09;5027307;28;20301;-74
2023/06/08 11:42:16;;;;;;;4.97;3.20;;;;;;;25.10;47.67;96924.00;5027123;28;20619;-75
2023/06/08 11:44:43;;;;;;;6.67;3.20;;;;;;;24.86;48.19;96922.09;5044045;28;20208;-74
2023/06/08 11:47:10;;;;;;;4.83;3.27;;;;;;;25.29;47.43;96908.59;5031289;28;20216;-75
2023/06/08 11:49:53;;;;;;;5.30;2.80;;;;;;;25.34;46.60;96916.06;5026836;28;20233;-76